sensor_id;sensor_type;location;lat;lon;timestamp;P1;durP1;ratioP1;P2;durP2;ratioP2
11970;SDS011;6045;42.682;23.294;2024-02-21T00:02:08;6.73;;;4.93;;
11970;SDS011;6045;42.682;23.294;2024-02-21T00:04:35;7.20;;;4.47;;
11970;SDS011;6045;42.682;23.294;2024-02-21T00:07:05;7.60;;;4.97;;
11970;SDS011;6045;42.682;23.294;2024-02-21T00:09:32;7.10;;;4.30;;
11970;SDS011;6045;42.682;23.294;2024-02-21T00:11:59;6.30;;;4.30;;
11970;SDS011;6045;42.682;23.294;2024-02-21T00:14:26;7.47;;;4.27;;
11970;SDS011;6045;42.682;23.294;2024-02-21T00:16:53;9.87;;;5.40;;
11970;SDS011;6045;42.682;23.294;2024-02-21T00:19:20;8.20;;;4.57;;
11970;SDS011;6045;42.682;23.294;2024-02-21T00:21:47;6.53;;;4.83;;
11970;SDS011;6045;42.682;23.294;2024-02-21T00:24:15;6.10;;;4.23;;
11970;SDS011;6045;42.682;23.294;2024-02-21T00:26:42;6.77;;;4.97;;
11970;SDS011;6045;42.682;23.294;2024-02-21T00:29:09;8.50;;;4.83;;
11970;SDS011;6045;42.682;23.294;2024-02-21T00:31:36;5.87;;;4.50;;
11970;SDS011;6045;42.682;23.294;2024-02-21T00:34:03;6.33;;;4.27;;
11970;SDS011;6045;42.682;23.294;2024-02-21T00:36:33;7.40;;;4.80;;
11970;SDS011;6045;42.682;23.294;2024-02-21T00:39:00;5.70;;;4.17;;
11970;SDS011;6045;42.682;23.294;2024-02-21T00:41:28;6.90;;;4.57;;
11970;SDS011;6045;42.682;23.294;2024-02-21T00:43:55;5.33;;;4.03;;
11970;SDS011;6045;42.682;23.294;2024-02-21T00:46:22;5.90;;;4.10;;
11970;SDS011;6045;42.682;23.294;2024-02-21T00:48:49;6.60;;;4.17;;
11970;SDS011;6045;42.682;23.294;2024-02-21T00:51:16;5.23;;;4.23;;
11970;SDS011;6045;42.682;23.294;2024-02-21T00:53:43;4.67;;;4.10;;
11970;SDS011;6045;42.682;23.294;2024-02-21T00:56:10;5.83;;;4.40;;
11970;SDS011;6045;42.682;23.294;2024-02-21T00:58:38;5.27;;;3.90;;
11970;SDS011;6045;42.682;23.294;2024-02-21T01:01:05;5.77;;;3.80;;
11970;SDS011;6045;42.682;23.294;2024-02-21T01:03:32;8.07;;;4.70;;
11970;SDS011;6045;42.682;23.294;2024-02-21T01:05:59;5.30;;;4.10;;
11970;SDS011;6045;42.682;23.294;2024-02-21T01:08:26;7.20;;;5.20;;
11970;SDS011;6045;42.682;23.294;2024-02-21T01:10:53;6.27;;;4.43;;
11970;SDS011;6045;42.682;23.294;2024-02-21T01:13:20;6.50;;;4.50;;
11970;SDS011;6045;42.682;23.294;2024-02-21T01:15:48;5.90;;;4.77;;
11970;SDS011;6045;42.682;23.294;2024-02-21T01:18:15;6.03;;;4.53;;
11970;SDS011;6045;42.682;23.294;2024-02-21T01:20:42;6.47;;;4.30;;
11970;SDS011;6045;42.682;23.294;2024-02-21T01:23:09;6.43;;;4.43;;
11970;SDS011;6045;42.682;23.294;2024-02-21T01:25:36;7.47;;;4.83;;
11970;SDS011;6045;42.682;23.294;2024-02-21T01:28:03;8.20;;;4.60;;
11970;SDS011;6045;42.682;23.294;2024-02-21T01:30:30;7.27;;;4.73;;
11970;SDS011;6045;42.682;23.294;2024-02-21T01:32:59;7.33;;;4.17;;
11970;SDS011;6045;42.682;23.294;2024-02-21T01:35:26;5.83;;;4.17;;
11970;SDS011;6045;42.682;23.294;2024-02-21T01:37:53;6.00;;;4.23;;
11970;SDS011;6045;42.682;23.294;2024-02-21T01:40:20;6.63;;;4.47;;
11970;SDS011;6045;42.682;23.294;2024-02-21T01:42:47;6.93;;;4.43;;
11970;SDS011;6045;42.682;23.294;2024-02-21T01:45:13;6.70;;;4.80;;
11970;SDS011;6045;42.682;23.294;2024-02-21T01:47:41;6.63;;;4.47;;
11970;SDS011;6045;42.682;23.294;2024-02-21T01:50:09;5.87;;;4.70;;
11970;SDS011;6045;42.682;23.294;2024-02-21T01:52:38;5.73;;;4.23;;
11970;SDS011;6045;42.682;23.294;2024-02-21T01:55:05;4.97;;;4.10;;
11970;SDS011;6045;42.682;23.294;2024-02-21T01:57:34;7.33;;;4.40;;
11970;SDS011;6045;42.682;23.294;2024-02-21T02:00:01;8.73;;;5.10;;
11970;SDS011;6045;42.682;23.294;2024-02-21T02:02:29;7.77;;;5.23;;
11970;SDS011;6045;42.682;23.294;2024-02-21T02:04:56;7.50;;;5.07;;
11970;SDS011;6045;42.682;23.294;2024-02-21T02:07:24;6.47;;;4.73;;
11970;SDS011;6045;42.682;23.294;2024-02-21T02:09:51;7.97;;;5.10;;
11970;SDS011;6045;42.682;23.294;2024-02-21T02:12:18;7.43;;;5.40;;
11970;SDS011;6045;42.682;23.294;2024-02-21T02:14:46;9.10;;;5.67;;
11970;SDS011;6045;42.682;23.294;2024-02-21T02:17:13;9.13;;;5.80;;
11970;SDS011;6045;42.682;23.294;2024-02-21T02:19:41;9.30;;;5.60;;
11970;SDS011;6045;42.682;23.294;2024-02-21T02:22:16;7.90;;;5.17;;
11970;SDS011;6045;42.682;23.294;2024-02-21T02:24:52;8.97;;;6.20;;
11970;SDS011;6045;42.682;23.294;2024-02-21T02:27:22;8.87;;;5.60;;
11970;SDS011;6045;42.682;23.294;2024-02-21T02:29:49;9.27;;;6.10;;
11970;SDS011;6045;42.682;23.294;2024-02-21T02:32:17;11.07;;;6.00;;
11970;SDS011;6045;42.682;23.294;2024-02-21T02:34:44;9.40;;;6.47;;
11970;SDS011;6045;42.682;23.294;2024-02-21T02:37:11;11.63;;;6.17;;
11970;SDS011;6045;42.682;23.294;2024-02-21T02:39:38;8.80;;;5.67;;
11970;SDS011;6045;42.682;23.294;2024-02-21T02:42:06;9.07;;;6.53;;
11970;SDS011;6045;42.682;23.294;2024-02-21T02:44:33;9.50;;;6.40;;
11970;SDS011;6045;42.682;23.294;2024-02-21T02:47:00;10.87;;;6.43;;
11970;SDS011;6045;42.682;23.294;2024-02-21T02:49:27;8.40;;;6.33;;
11970;SDS011;6045;42.682;23.294;2024-02-21T02:51:54;9.67;;;6.57;;
11970;SDS011;6045;42.682;23.294;2024-02-21T02:54:21;7.33;;;5.60;;
11970;SDS011;6045;42.682;23.294;2024-02-21T02:56:49;10.60;;;6.30;;
11970;SDS011;6045;42.682;23.294;2024-02-21T02:59:18;9.83;;;6.13;;
11970;SDS011;6045;42.682;23.294;2024-02-21T03:01:45;8.43;;;5.97;;
11970;SDS011;6045;42.682;23.294;2024-02-21T03:04:12;10.80;;;6.70;;
11970;SDS011;6045;42.682;23.294;2024-02-21T03:06:39;10.47;;;6.57;;
11970;SDS011;6045;42.682;23.294;2024-02-21T03:09:05;11.33;;;6.83;;
11970;SDS011;6045;42.682;23.294;2024-02-21T03:11:33;10.17;;;7.10;;
11970;SDS011;6045;42.682;23.294;2024-02-21T03:14:02;10.33;;;7.03;;
11970;SDS011;6045;42.682;23.294;2024-02-21T03:16:30;12.50;;;7.77;;
11970;SDS011;6045;42.682;23.294;2024-02-21T03:18:57;11.70;;;6.70;;
11970;SDS011;6045;42.682;23.294;2024-02-21T03:21:24;10.70;;;6.87;;
11970;SDS011;6045;42.682;23.294;2024-02-21T03:23:51;10.60;;;6.83;;
11970;SDS011;6045;42.682;23.294;2024-02-21T03:26:18;10.67;;;6.80;;
11970;SDS011;6045;42.682;23.294;2024-02-21T03:28:45;10.57;;;6.47;;
11970;SDS011;6045;42.682;23.294;2024-02-21T03:31:12;12.40;;;6.97;;
11970;SDS011;6045;42.682;23.294;2024-02-21T03:33:40;11.30;;;7.30;;
11970;SDS011;6045;42.682;23.294;2024-02-21T03:36:12;11.30;;;7.03;;
11970;SDS011;6045;42.682;23.294;2024-02-21T03:38:40;11.20;;;7.07;;
11970;SDS011;6045;42.682;23.294;2024-02-21T03:41:07;9.77;;;7.07;;
11970;SDS011;6045;42.682;23.294;2024-02-21T03:43:34;11.90;;;6.83;;
11970;SDS011;6045;42.682;23.294;2024-02-21T03:46:01;10.23;;;6.67;;
11970;SDS011;6045;42.682;23.294;2024-02-21T03:48:28;9.03;;;6.23;;
11970;SDS011;6045;42.682;23.294;2024-02-21T03:50:56;9.97;;;6.53;;
11970;SDS011;6045;42.682;23.294;2024-02-21T03:53:26;13.50;;;7.33;;
11970;SDS011;6045;42.682;23.294;2024-02-21T03:55:53;11.93;;;7.40;;
11970;SDS011;6045;42.682;23.294;2024-02-21T04:05:27;12.63;;;7.20;;
11970;SDS011;6045;42.682;23.294;2024-02-21T04:07:58;11.73;;;7.73;;
11970;SDS011;6045;42.682;23.294;2024-02-21T04:10:25;13.10;;;7.43;;
11970;SDS011;6045;42.682;23.294;2024-02-21T04:12:52;12.77;;;7.23;;
11970;SDS011;6045;42.682;23.294;2024-02-21T04:15:19;10.70;;;6.40;;
11970;SDS011;6045;42.682;23.294;2024-02-21T04:17:46;14.10;;;7.07;;
11970;SDS011;6045;42.682;23.294;2024-02-21T04:20:13;11.97;;;7.50;;
11970;SDS011;6045;42.682;23.294;2024-02-21T04:22:42;13.40;;;7.73;;
11970;SDS011;6045;42.682;23.294;2024-02-21T04:25:11;12.60;;;8.07;;
11970;SDS011;6045;42.682;23.294;2024-02-21T04:27:39;12.83;;;8.13;;
11970;SDS011;6045;42.682;23.294;2024-02-21T04:30:06;13.00;;;7.93;;
11970;SDS011;6045;42.682;23.294;2024-02-21T04:32:34;12.93;;;8.90;;
11970;SDS011;6045;42.682;23.294;2024-02-21T04:35:02;9.80;;;7.17;;
11970;SDS011;6045;42.682;23.294;2024-02-21T04:37:29;11.67;;;8.07;;
11970;SDS011;6045;42.682;23.294;2024-02-21T04:39:56;15.70;;;7.90;;
11970;SDS011;6045;42.682;23.294;2024-02-21T04:42:24;15.03;;;9.27;;
11970;SDS011;6045;42.682;23.294;2024-02-21T04:44:51;17.07;;;8.50;;
11970;SDS011;6045;42.682;23.294;2024-02-21T04:47:18;13.67;;;9.57;;
11970;SDS011;6045;42.682;23.294;2024-02-21T04:49:46;14.37;;;9.47;;
11970;SDS011;6045;42.682;23.294;2024-02-21T04:52:13;16.43;;;9.47;;
11970;SDS011;6045;42.682;23.294;2024-02-21T04:54:40;17.17;;;9.63;;
11970;SDS011;6045;42.682;23.294;2024-02-21T04:57:07;13.97;;;9.13;;
11970;SDS011;6045;42.682;23.294;2024-02-21T04:59:36;14.73;;;9.70;;
11970;SDS011;6045;42.682;23.294;2024-02-21T05:02:03;16.20;;;9.73;;
11970;SDS011;6045;42.682;23.294;2024-02-21T05:04:30;15.40;;;9.87;;
11970;SDS011;6045;42.682;23.294;2024-02-21T05:06:59;16.23;;;9.40;;
11970;SDS011;6045;42.682;23.294;2024-02-21T05:09:26;15.87;;;9.57;;
11970;SDS011;6045;42.682;23.294;2024-02-21T05:11:53;13.33;;;9.23;;
11970;SDS011;6045;42.682;23.294;2024-02-21T05:14:20;19.20;;;9.53;;
11970;SDS011;6045;42.682;23.294;2024-02-21T05:16:48;13.13;;;9.10;;
11970;SDS011;6045;42.682;23.294;2024-02-21T05:19:15;15.63;;;9.00;;
11970;SDS011;6045;42.682;23.294;2024-02-21T05:21:42;14.30;;;9.00;;
11970;SDS011;6045;42.682;23.294;2024-02-21T05:24:09;14.97;;;8.47;;
11970;SDS011;6045;42.682;23.294;2024-02-21T05:26:36;18.73;;;9.80;;
11970;SDS011;6045;42.682;23.294;2024-02-21T05:29:03;15.77;;;9.07;;
11970;SDS011;6045;42.682;23.294;2024-02-21T05:31:42;16.87;;;8.90;;
11970;SDS011;6045;42.682;23.294;2024-02-21T05:34:22;16.07;;;8.70;;
11970;SDS011;6045;42.682;23.294;2024-02-21T05:36:50;16.20;;;9.70;;
11970;SDS011;6045;42.682;23.294;2024-02-21T05:39:17;17.53;;;9.43;;
11970;SDS011;6045;42.682;23.294;2024-02-21T05:41:44;16.13;;;10.40;;
11970;SDS011;6045;42.682;23.294;2024-02-21T05:44:12;18.33;;;10.13;;
11970;SDS011;6045;42.682;23.294;2024-02-21T05:46:39;17.30;;;10.77;;
11970;SDS011;6045;42.682;23.294;2024-02-21T05:49:05;19.10;;;12.13;;
11970;SDS011;6045;42.682;23.294;2024-02-21T05:51:34;17.73;;;11.10;;
11970;SDS011;6045;42.682;23.294;2024-02-21T05:54:02;23.53;;;12.17;;
11970;SDS011;6045;42.682;23.294;2024-02-21T05:56:29;18.00;;;11.10;;
11970;SDS011;6045;42.682;23.294;2024-02-21T05:58:56;18.63;;;10.60;;
11970;SDS011;6045;42.682;23.294;2024-02-21T06:01:22;16.10;;;10.93;;
11970;SDS011;6045;42.682;23.294;2024-02-21T06:03:49;21.87;;;12.00;;
11970;SDS011;6045;42.682;23.294;2024-02-21T06:06:16;20.37;;;12.13;;
11970;SDS011;6045;42.682;23.294;2024-02-21T06:08:44;17.50;;;10.77;;
11970;SDS011;6045;42.682;23.294;2024-02-21T06:11:11;21.07;;;12.10;;
11970;SDS011;6045;42.682;23.294;2024-02-21T06:13:40;19.60;;;12.20;;
11970;SDS011;6045;42.682;23.294;2024-02-21T06:16:07;24.70;;;12.80;;
11970;SDS011;6045;42.682;23.294;2024-02-21T06:18:37;19.93;;;11.97;;
11970;SDS011;6045;42.682;23.294;2024-02-21T06:21:05;18.47;;;11.00;;
11970;SDS011;6045;42.682;23.294;2024-02-21T06:23:32;20.40;;;11.47;;
11970;SDS011;6045;42.682;23.294;2024-02-21T06:26:04;21.33;;;12.07;;
11970;SDS011;6045;42.682;23.294;2024-02-21T06:28:31;21.63;;;13.53;;
11970;SDS011;6045;42.682;23.294;2024-02-21T06:30:58;22.70;;;13.23;;
11970;SDS011;6045;42.682;23.294;2024-02-21T06:33:25;23.33;;;12.67;;
11970;SDS011;6045;42.682;23.294;2024-02-21T06:35:52;24.40;;;15.27;;
11970;SDS011;6045;42.682;23.294;2024-02-21T06:38:19;19.97;;;12.77;;
11970;SDS011;6045;42.682;23.294;2024-02-21T06:40:46;21.97;;;13.20;;
11970;SDS011;6045;42.682;23.294;2024-02-21T06:43:19;18.97;;;11.83;;
11970;SDS011;6045;42.682;23.294;2024-02-21T06:45:47;20.37;;;12.83;;
11970;SDS011;6045;42.682;23.294;2024-02-21T06:48:16;15.57;;;9.93;;
11970;SDS011;6045;42.682;23.294;2024-02-21T06:50:44;16.23;;;10.00;;
11970;SDS011;6045;42.682;23.294;2024-02-21T06:53:12;15.70;;;9.30;;
11970;SDS011;6045;42.682;23.294;2024-02-21T06:55:39;16.97;;;9.57;;
11970;SDS011;6045;42.682;23.294;2024-02-21T06:58:05;16.50;;;9.10;;
11970;SDS011;6045;42.682;23.294;2024-02-21T07:00:38;12.13;;;8.40;;
11970;SDS011;6045;42.682;23.294;2024-02-21T07:03:05;16.80;;;9.67;;
11970;SDS011;6045;42.682;23.294;2024-02-21T07:05:32;14.10;;;7.97;;
11970;SDS011;6045;42.682;23.294;2024-02-21T07:07:59;16.60;;;9.77;;
11970;SDS011;6045;42.682;23.294;2024-02-21T07:10:26;14.83;;;7.77;;
11970;SDS011;6045;42.682;23.294;2024-02-21T07:12:54;16.47;;;9.67;;
11970;SDS011;6045;42.682;23.294;2024-02-21T07:15:21;15.40;;;9.30;;
11970;SDS011;6045;42.682;23.294;2024-02-21T07:17:49;16.33;;;9.67;;
11970;SDS011;6045;42.682;23.294;2024-02-21T07:20:16;18.10;;;8.93;;
11970;SDS011;6045;42.682;23.294;2024-02-21T07:22:43;14.97;;;9.77;;
11970;SDS011;6045;42.682;23.294;2024-02-21T07:25:13;16.40;;;10.13;;
11970;SDS011;6045;42.682;23.294;2024-02-21T07:27:43;17.10;;;9.57;;
11970;SDS011;6045;42.682;23.294;2024-02-21T07:30:11;14.37;;;8.50;;
11970;SDS011;6045;42.682;23.294;2024-02-21T07:32:38;16.27;;;8.93;;
11970;SDS011;6045;42.682;23.294;2024-02-21T07:35:07;18.33;;;9.90;;
11970;SDS011;6045;42.682;23.294;2024-02-21T07:37:36;16.20;;;8.87;;
11970;SDS011;6045;42.682;23.294;2024-02-21T07:40:03;31.10;;;17.17;;
11970;SDS011;6045;42.682;23.294;2024-02-21T07:42:32;18.50;;;11.37;;
11970;SDS011;6045;42.682;23.294;2024-02-21T07:44:59;15.27;;;9.27;;
11970;SDS011;6045;42.682;23.294;2024-02-21T07:47:26;15.87;;;9.97;;
11970;SDS011;6045;42.682;23.294;2024-02-21T07:49:53;16.70;;;10.33;;
11970;SDS011;6045;42.682;23.294;2024-02-21T07:52:21;17.27;;;10.20;;
11970;SDS011;6045;42.682;23.294;2024-02-21T07:54:49;16.27;;;9.73;;
11970;SDS011;6045;42.682;23.294;2024-02-21T07:57:16;13.93;;;7.97;;
11970;SDS011;6045;42.682;23.294;2024-02-21T07:59:43;16.33;;;9.53;;
11970;SDS011;6045;42.682;23.294;2024-02-21T08:02:12;17.60;;;10.20;;
11970;SDS011;6045;42.682;23.294;2024-02-21T08:04:39;14.07;;;8.87;;
11970;SDS011;6045;42.682;23.294;2024-02-21T08:07:06;12.63;;;8.93;;
11970;SDS011;6045;42.682;23.294;2024-02-21T08:09:35;15.43;;;9.13;;
11970;SDS011;6045;42.682;23.294;2024-02-21T08:12:03;15.17;;;8.83;;
11970;SDS011;6045;42.682;23.294;2024-02-21T08:14:31;15.13;;;9.07;;
11970;SDS011;6045;42.682;23.294;2024-02-21T08:16:58;13.23;;;8.67;;
11970;SDS011;6045;42.682;23.294;2024-02-21T08:19:25;13.10;;;8.57;;
11970;SDS011;6045;42.682;23.294;2024-02-21T08:21:52;13.10;;;9.47;;
11970;SDS011;6045;42.682;23.294;2024-02-21T08:24:19;13.23;;;8.80;;
11970;SDS011;6045;42.682;23.294;2024-02-21T08:26:49;14.43;;;8.47;;
11970;SDS011;6045;42.682;23.294;2024-02-21T08:29:16;14.40;;;8.40;;
11970;SDS011;6045;42.682;23.294;2024-02-21T08:31:43;12.37;;;8.30;;
11970;SDS011;6045;42.682;23.294;2024-02-21T08:34:10;12.30;;;8.50;;
11970;SDS011;6045;42.682;23.294;2024-02-21T08:36:38;14.40;;;8.63;;
11970;SDS011;6045;42.682;23.294;2024-02-21T08:39:05;11.37;;;7.77;;
11970;SDS011;6045;42.682;23.294;2024-02-21T08:41:32;12.57;;;8.70;;
11970;SDS011;6045;42.682;23.294;2024-02-21T08:44:01;11.40;;;7.40;;
11970;SDS011;6045;42.682;23.294;2024-02-21T08:46:28;12.63;;;8.60;;
11970;SDS011;6045;42.682;23.294;2024-02-21T08:48:55;12.07;;;8.70;;
11970;SDS011;6045;42.682;23.294;2024-02-21T08:51:25;10.93;;;7.97;;
11970;SDS011;6045;42.682;23.294;2024-02-21T08:53:52;12.27;;;9.30;;
11970;SDS011;6045;42.682;23.294;2024-02-21T08:56:19;10.73;;;8.45;;
11970;SDS011;6045;42.682;23.294;2024-02-21T08:58:48;10.73;;;8.20;;
11970;SDS011;6045;42.682;23.294;2024-02-21T09:01:15;8.40;;;6.97;;
11970;SDS011;6045;42.682;23.294;2024-02-21T09:03:42;9.80;;;7.27;;
11970;SDS011;6045;42.682;23.294;2024-02-21T09:06:09;11.57;;;7.77;;
11970;SDS011;6045;42.682;23.294;2024-02-21T09:08:38;10.67;;;7.30;;
11970;SDS011;6045;42.682;23.294;2024-02-21T09:11:05;10.90;;;7.87;;
11970;SDS011;6045;42.682;23.294;2024-02-21T09:13:32;12.20;;;7.87;;
11970;SDS011;6045;42.682;23.294;2024-02-21T09:15:59;12.57;;;8.60;;
11970;SDS011;6045;42.682;23.294;2024-02-21T09:18:28;15.00;;;8.73;;
11970;SDS011;6045;42.682;23.294;2024-02-21T09:20:55;11.70;;;7.87;;
11970;SDS011;6045;42.682;23.294;2024-02-21T09:23:23;13.03;;;8.87;;
11970;SDS011;6045;42.682;23.294;2024-02-21T09:25:50;13.83;;;9.43;;
11970;SDS011;6045;42.682;23.294;2024-02-21T09:28:17;13.23;;;9.00;;
11970;SDS011;6045;42.682;23.294;2024-02-21T09:30:44;12.50;;;8.73;;
11970;SDS011;6045;42.682;23.294;2024-02-21T09:33:12;12.33;;;8.33;;
11970;SDS011;6045;42.682;23.294;2024-02-21T09:35:40;11.93;;;8.70;;
11970;SDS011;6045;42.682;23.294;2024-02-21T09:38:10;12.63;;;8.23;;
11970;SDS011;6045;42.682;23.294;2024-02-21T09:40:37;10.50;;;7.90;;
11970;SDS011;6045;42.682;23.294;2024-02-21T09:43:07;10.53;;;7.70;;
11970;SDS011;6045;42.682;23.294;2024-02-21T09:45:34;10.67;;;7.70;;
11970;SDS011;6045;42.682;23.294;2024-02-21T09:48:13;10.40;;;7.88;;
11970;SDS011;6045;42.682;23.294;2024-02-21T09:50:50;10.63;;;7.68;;
11970;SDS011;6045;42.682;23.294;2024-02-21T09:53:20;11.07;;;8.65;;
11970;SDS011;6045;42.682;23.294;2024-02-21T09:55:49;9.82;;;7.78;;
11970;SDS011;6045;42.682;23.294;2024-02-21T09:58:16;10.23;;;7.63;;
11970;SDS011;6045;42.682;23.294;2024-02-21T10:00:43;9.25;;;6.53;;
11970;SDS011;6045;42.682;23.294;2024-02-21T10:03:10;9.13;;;7.07;;
11970;SDS011;6045;42.682;23.294;2024-02-21T10:05:38;10.73;;;7.18;;
11970;SDS011;6045;42.682;23.294;2024-02-21T10:08:13;8.70;;;6.63;;
11970;SDS011;6045;42.682;23.294;2024-02-21T10:10:42;9.95;;;6.45;;
11970;SDS011;6045;42.682;23.294;2024-02-21T10:13:09;9.25;;;6.30;;
11970;SDS011;6045;42.682;23.294;2024-02-21T10:15:36;8.93;;;6.53;;
11970;SDS011;6045;42.682;23.294;2024-02-21T10:18:03;9.00;;;6.17;;
11970;SDS011;6045;42.682;23.294;2024-02-21T10:20:32;10.27;;;6.53;;
11970;SDS011;6045;42.682;23.294;2024-02-21T10:23:02;9.50;;;6.37;;
11970;SDS011;6045;42.682;23.294;2024-02-21T10:25:34;8.37;;;6.30;;
11970;SDS011;6045;42.682;23.294;2024-02-21T10:28:03;7.87;;;6.07;;
11970;SDS011;6045;42.682;23.294;2024-02-21T10:30:30;6.50;;;5.63;;
11970;SDS011;6045;42.682;23.294;2024-02-21T10:32:57;7.27;;;6.10;;
11970;SDS011;6045;42.682;23.294;2024-02-21T10:35:28;7.50;;;5.67;;
11970;SDS011;6045;42.682;23.294;2024-02-21T10:37:56;7.47;;;5.53;;
11970;SDS011;6045;42.682;23.294;2024-02-21T10:40:23;7.10;;;5.60;;
11970;SDS011;6045;42.682;23.294;2024-02-21T10:42:57;6.90;;;5.63;;
11970;SDS011;6045;42.682;23.294;2024-02-21T10:45:29;6.32;;;5.38;;
11970;SDS011;6045;42.682;23.294;2024-02-21T10:48:01;8.48;;;5.25;;
11970;SDS011;6045;42.682;23.294;2024-02-21T10:50:36;6.88;;;4.80;;
11970;SDS011;6045;42.682;23.294;2024-02-21T10:53:17;6.32;;;5.35;;
11970;SDS011;6045;42.682;23.294;2024-02-21T10:55:52;9.52;;;5.50;;
11970;SDS011;6045;42.682;23.294;2024-02-21T10:58:29;6.90;;;4.80;;
11970;SDS011;6045;42.682;23.294;2024-02-21T11:00:58;9.50;;;4.72;;
11970;SDS011;6045;42.682;23.294;2024-02-21T11:03:25;5.53;;;4.57;;
11970;SDS011;6045;42.682;23.294;2024-02-21T11:05:52;6.18;;;4.70;;
11970;SDS011;6045;42.682;23.294;2024-02-21T11:08:20;7.18;;;4.97;;
11970;SDS011;6045;42.682;23.294;2024-02-21T11:10:47;9.05;;;4.72;;
11970;SDS011;6045;42.682;23.294;2024-02-21T11:13:14;8.88;;;5.28;;
11970;SDS011;6045;42.682;23.294;2024-02-21T11:15:42;6.13;;;4.47;;
11970;SDS011;6045;42.682;23.294;2024-02-21T11:18:09;6.00;;;4.28;;
11970;SDS011;6045;42.682;23.294;2024-02-21T11:20:36;4.88;;;4.10;;
11970;SDS011;6045;42.682;23.294;2024-02-21T11:23:04;5.07;;;4.10;;
11970;SDS011;6045;42.682;23.294;2024-02-21T11:25:31;4.30;;;3.88;;
11970;SDS011;6045;42.682;23.294;2024-02-21T11:27:59;7.25;;;4.28;;
11970;SDS011;6045;42.682;23.294;2024-02-21T11:30:29;4.93;;;3.25;;
11970;SDS011;6045;42.682;23.294;2024-02-21T11:33:02;5.47;;;4.10;;
11970;SDS011;6045;42.682;23.294;2024-02-21T11:35:33;6.97;;;4.85;;
11970;SDS011;6045;42.682;23.294;2024-02-21T11:38:07;6.15;;;4.13;;
11970;SDS011;6045;42.682;23.294;2024-02-21T11:40:35;6.77;;;4.17;;
11970;SDS011;6045;42.682;23.294;2024-02-21T11:43:04;3.80;;;3.30;;
11970;SDS011;6045;42.682;23.294;2024-02-21T11:45:31;4.93;;;4.07;;
11970;SDS011;6045;42.682;23.294;2024-02-21T11:47:58;5.13;;;4.03;;
11970;SDS011;6045;42.682;23.294;2024-02-21T11:50:30;5.80;;;3.97;;
11970;SDS011;6045;42.682;23.294;2024-02-21T11:52:57;5.37;;;4.00;;
11970;SDS011;6045;42.682;23.294;2024-02-21T11:55:25;5.00;;;3.77;;
11970;SDS011;6045;42.682;23.294;2024-02-21T11:57:53;5.80;;;3.90;;
11970;SDS011;6045;42.682;23.294;2024-02-21T12:00:20;6.43;;;5.47;;
11970;SDS011;6045;42.682;23.294;2024-02-21T12:02:49;5.63;;;4.20;;
11970;SDS011;6045;42.682;23.294;2024-02-21T12:05:18;7.60;;;4.87;;
11970;SDS011;6045;42.682;23.294;2024-02-21T12:07:47;6.27;;;4.67;;
11970;SDS011;6045;42.682;23.294;2024-02-21T12:10:14;7.20;;;4.13;;
11970;SDS011;6045;42.682;23.294;2024-02-21T12:12:41;6.40;;;4.33;;
11970;SDS011;6045;42.682;23.294;2024-02-21T12:15:08;5.90;;;4.43;;
11970;SDS011;6045;42.682;23.294;2024-02-21T12:17:35;5.70;;;4.23;;
11970;SDS011;6045;42.682;23.294;2024-02-21T12:20:03;6.27;;;4.20;;
11970;SDS011;6045;42.682;23.294;2024-02-21T12:22:35;7.03;;;4.77;;
11970;SDS011;6045;42.682;23.294;2024-02-21T12:25:04;9.33;;;6.17;;
11970;SDS011;6045;42.682;23.294;2024-02-21T12:27:43;8.13;;;4.43;;
11970;SDS011;6045;42.682;23.294;2024-02-21T12:30:10;7.67;;;5.20;;
11970;SDS011;6045;42.682;23.294;2024-02-21T12:32:37;6.13;;;4.37;;
11970;SDS011;6045;42.682;23.294;2024-02-21T12:35:05;5.43;;;4.40;;
11970;SDS011;6045;42.682;23.294;2024-02-21T12:37:32;7.90;;;4.67;;
11970;SDS011;6045;42.682;23.294;2024-02-21T12:39:59;4.93;;;3.67;;
11970;SDS011;6045;42.682;23.294;2024-02-21T12:42:27;6.17;;;3.87;;
11970;SDS011;6045;42.682;23.294;2024-02-21T12:44:54;5.30;;;4.07;;
11970;SDS011;6045;42.682;23.294;2024-02-21T12:47:21;8.93;;;4.60;;
11970;SDS011;6045;42.682;23.294;2024-02-21T12:49:50;6.43;;;3.77;;
11970;SDS011;6045;42.682;23.294;2024-02-21T12:52:18;7.57;;;3.80;;
11970;SDS011;6045;42.682;23.294;2024-02-21T12:54:45;6.20;;;4.37;;
11970;SDS011;6045;42.682;23.294;2024-02-21T12:57:12;5.20;;;4.37;;
11970;SDS011;6045;42.682;23.294;2024-02-21T12:59:41;7.00;;;5.00;;
11970;SDS011;6045;42.682;23.294;2024-02-21T13:02:08;8.30;;;5.33;;
11970;SDS011;6045;42.682;23.294;2024-02-21T13:04:35;6.37;;;5.10;;
11970;SDS011;6045;42.682;23.294;2024-02-21T13:07:05;7.23;;;5.17;;
11970;SDS011;6045;42.682;23.294;2024-02-21T13:09:33;7.00;;;4.83;;
11970;SDS011;6045;42.682;23.294;2024-02-21T13:12:00;9.27;;;5.27;;
11970;SDS011;6045;42.682;23.294;2024-02-21T13:14:27;7.47;;;5.17;;
11970;SDS011;6045;42.682;23.294;2024-02-21T13:16:56;9.10;;;5.20;;
11970;SDS011;6045;42.682;23.294;2024-02-21T13:19:22;6.97;;;5.23;;
11970;SDS011;6045;42.682;23.294;2024-02-21T13:21:49;8.40;;;5.10;;
11970;SDS011;6045;42.682;23.294;2024-02-21T13:24:16;6.93;;;4.93;;
11970;SDS011;6045;42.682;23.294;2024-02-21T13:26:43;7.73;;;5.83;;
11970;SDS011;6045;42.682;23.294;2024-02-21T13:29:10;7.97;;;6.10;;
11970;SDS011;6045;42.682;23.294;2024-02-21T13:31:37;7.20;;;5.20;;
11970;SDS011;6045;42.682;23.294;2024-02-21T13:34:06;8.07;;;5.73;;
11970;SDS011;6045;42.682;23.294;2024-02-21T13:36:34;7.10;;;5.03;;
11970;SDS011;6045;42.682;23.294;2024-02-21T13:39:00;9.43;;;6.50;;
11970;SDS011;6045;42.682;23.294;2024-02-21T13:41:30;7.70;;;5.10;;
11970;SDS011;6045;42.682;23.294;2024-02-21T13:43:57;6.27;;;4.80;;
11970;SDS011;6045;42.682;23.294;2024-02-21T13:46:27;7.33;;;5.30;;
11970;SDS011;6045;42.682;23.294;2024-02-21T13:48:54;8.80;;;5.13;;
11970;SDS011;6045;42.682;23.294;2024-02-21T13:51:31;6.33;;;5.00;;
11970;SDS011;6045;42.682;23.294;2024-02-21T13:53:59;8.13;;;5.50;;
11970;SDS011;6045;42.682;23.294;2024-02-21T13:59:12;6.83;;;4.87;;
11970;SDS011;6045;42.682;23.294;2024-02-21T14:01:39;9.80;;;5.47;;
11970;SDS011;6045;42.682;23.294;2024-02-21T14:04:06;7.67;;;5.30;;
11970;SDS011;6045;42.682;23.294;2024-02-21T14:06:34;9.53;;;6.00;;
11970;SDS011;6045;42.682;23.294;2024-02-21T14:09:02;8.77;;;4.53;;
11970;SDS011;6045;42.682;23.294;2024-02-21T14:11:29;6.13;;;4.57;;
11970;SDS011;6045;42.682;23.294;2024-02-21T14:13:56;7.10;;;4.50;;
11970;SDS011;6045;42.682;23.294;2024-02-21T14:16:23;8.80;;;4.57;;
11970;SDS011;6045;42.682;23.294;2024-02-21T14:18:50;6.00;;;4.47;;
11970;SDS011;6045;42.682;23.294;2024-02-21T14:21:19;6.70;;;4.27;;
11970;SDS011;6045;42.682;23.294;2024-02-21T14:23:47;7.10;;;4.57;;
11970;SDS011;6045;42.682;23.294;2024-02-21T14:32:46;6.87;;;5.03;;
11970;SDS011;6045;42.682;23.294;2024-02-21T14:35:13;9.50;;;5.37;;
11970;SDS011;6045;42.682;23.294;2024-02-21T14:37:40;6.87;;;5.00;;
11970;SDS011;6045;42.682;23.294;2024-02-21T14:40:09;9.33;;;6.00;;
11970;SDS011;6045;42.682;23.294;2024-02-21T14:42:37;7.93;;;4.93;;
11970;SDS011;6045;42.682;23.294;2024-02-21T14:45:04;7.90;;;5.20;;
11970;SDS011;6045;42.682;23.294;2024-02-21T14:47:32;7.83;;;5.07;;
11970;SDS011;6045;42.682;23.294;2024-02-21T14:49:59;9.87;;;5.67;;
11970;SDS011;6045;42.682;23.294;2024-02-21T14:52:28;10.27;;;6.07;;
11970;SDS011;6045;42.682;23.294;2024-02-21T14:54:55;9.87;;;7.07;;
11970;SDS011;6045;42.682;23.294;2024-02-21T14:57:23;11.53;;;6.03;;
11970;SDS011;6045;42.682;23.294;2024-02-21T14:59:51;7.90;;;5.60;;
11970;SDS011;6045;42.682;23.294;2024-02-21T15:02:21;8.27;;;5.30;;